createdAt,value
2022-09-24T00:01:35.618Z,25.50
2022-09-24T00:04:06.435Z,25.83
2022-09-24T00:06:44.599Z,24.57
2022-09-24T00:09:16.542Z,27.83
2022-09-24T00:11:46.022Z,25.43
2022-09-24T00:14:13.591Z,23.83
2022-09-24T00:16:40.987Z,26.03
2022-09-24T00:19:07.729Z,23.57
2022-09-24T00:21:36.055Z,26.70
2022-09-24T00:24:07.631Z,25.87
2022-09-24T00:26:49.733Z,22.43
2022-09-24T00:29:22.741Z,25.47
2022-09-24T00:31:50.732Z,24.77
2022-09-24T00:34:18.529Z,24.33
2022-09-24T00:36:46.910Z,26.27
2022-09-24T00:39:13.926Z,30.13
2022-09-24T00:41:45.034Z,31.23
2022-09-24T00:44:42.609Z,34.53
2022-09-24T00:47:31.402Z,36.13
2022-09-24T00:50:20.279Z,24.73
2022-09-24T00:52:52.137Z,32.87
2022-09-24T00:55:20.445Z,29.47
2022-09-24T00:57:50.021Z,26.13
2022-09-24T01:00:16.961Z,29.47
2022-09-24T01:02:46.708Z,28.27
2022-09-24T01:05:13.860Z,22.80
2022-09-24T01:07:40.889Z,26.30
2022-09-24T01:10:07.983Z,23.03
2022-09-24T01:12:45.923Z,27.47
2022-09-24T01:15:33.005Z,25.53
2022-09-24T01:18:07.130Z,24.10
2022-09-24T01:20:56.008Z,24.53
2022-09-24T01:24:03.503Z,25.47
2022-09-24T01:26:46.551Z,22.30
2022-09-24T01:29:35.063Z,21.73
2022-09-24T01:32:07.576Z,21.87
2022-09-24T01:34:43.730Z,23.97
2022-09-24T01:37:14.947Z,27.57
2022-09-24T01:39:43.867Z,26.50
2022-09-24T01:42:12.247Z,27.10
2022-09-24T01:44:44.682Z,23.57
2022-09-24T01:47:22.471Z,26.97
2022-09-24T01:49:51.558Z,25.43
2022-09-24T01:52:25.300Z,24.03
2022-09-24T01:54:54.715Z,27.23
2022-09-24T01:57:30.184Z,19.93
2022-09-24T02:00:09.935Z,22.43
2022-09-24T02:03:02.616Z,21.43
2022-09-24T02:05:38.886Z,20.53
2022-09-24T02:08:16.568Z,22.33
2022-09-24T02:10:52.747Z,21.37
2022-09-24T02:13:24.724Z,21.23
2022-09-24T02:15:57.452Z,21.93
2022-09-24T02:18:29.387Z,21.33
2022-09-24T02:20:57.570Z,22.30
2022-09-24T02:23:28.541Z,24.30
2022-09-24T02:26:04.441Z,21.47
2022-09-24T02:28:33.194Z,22.40
2022-09-24T02:31:08.173Z,24.17
2022-09-24T02:33:55.036Z,24.87
2022-09-24T02:36:25.000Z,21.80
2022-09-24T02:38:52.989Z,20.90
2022-09-24T02:41:24.049Z,19.30
2022-09-24T02:43:51.817Z,23.80
2022-09-24T02:46:19.030Z,26.53
2022-09-24T02:48:45.858Z,23.00
2022-09-24T02:51:12.616Z,23.40
2022-09-24T02:53:39.348Z,26.83
2022-09-24T02:56:07.651Z,30.07
2022-09-24T02:58:37.430Z,28.10
2022-09-24T03:01:05.376Z,27.77
2022-09-24T03:03:32.734Z,26.07
2022-09-24T03:05:59.486Z,27.47
2022-09-24T03:08:27.128Z,24.50
2022-09-24T03:10:56.150Z,22.90
2022-09-24T03:13:23.647Z,22.87
2022-09-24T03:15:50.656Z,20.87
2022-09-24T03:18:17.383Z,21.50
2022-09-24T03:20:44.164Z,29.13
2022-09-24T03:23:10.843Z,21.20
2022-09-24T03:25:37.639Z,24.50
2022-09-24T03:28:04.390Z,24.53
2022-09-24T03:30:49.775Z,19.70
2022-09-24T03:33:16.611Z,22.20
2022-09-24T03:35:43.617Z,28.33
2022-09-24T03:38:10.375Z,23.53
2022-09-24T03:40:37.155Z,28.00
2022-09-24T03:43:04.025Z,24.80
2022-09-24T03:45:31.146Z,25.67
2022-09-24T03:47:57.858Z,27.93
2022-09-24T03:50:24.574Z,20.90
2022-09-24T03:52:51.273Z,22.93
2022-09-24T03:55:18.073Z,21.20
2022-09-24T03:57:44.795Z,22.73
2022-09-24T04:00:11.899Z,20.67
2022-09-24T04:02:40.875Z,21.00
2022-09-24T04:05:07.988Z,25.20
2022-09-24T04:07:35.006Z,25.57
2022-09-24T04:10:02.018Z,30.27
2022-09-24T04:12:29.720Z,32.07
2022-09-24T04:14:56.633Z,36.10
2022-09-24T04:17:23.342Z,32.87
2022-09-24T04:19:51.048Z,33.53
2022-09-24T04:22:17.758Z,26.57
2022-09-24T04:24:44.694Z,27.77
2022-09-24T04:27:11.771Z,25.97
2022-09-24T04:29:38.474Z,23.20
2022-09-24T04:32:05.193Z,25.63
2022-09-24T04:34:32.049Z,24.33
2022-09-24T04:36:58.750Z,23.07
2022-09-24T04:39:27.303Z,23.27
2022-09-24T04:41:54.608Z,23.47
2022-09-24T04:44:21.414Z,19.93
2022-09-24T04:46:48.981Z,22.83
2022-09-24T04:49:15.740Z,23.03
2022-09-24T04:51:42.488Z,22.70
2022-09-24T04:54:09.738Z,25.97
2022-09-24T04:56:36.505Z,26.23
2022-09-24T04:59:03.357Z,27.23
2022-09-24T05:01:30.265Z,28.60
2022-09-24T05:03:56.999Z,36.10
2022-09-24T05:06:24.208Z,35.83
2022-09-24T05:08:50.892Z,39.47
2022-09-24T05:11:19.586Z,35.37
2022-09-24T05:13:46.271Z,37.80
2022-09-24T05:16:13.022Z,35.13
2022-09-24T05:18:39.879Z,34.73
2022-09-24T05:21:06.746Z,32.93
2022-09-24T05:23:33.455Z,30.77
2022-09-24T05:26:26.151Z,31.37
2022-09-24T05:28:53.217Z,30.57
2022-09-24T05:31:20.312Z,30.43
2022-09-24T05:33:47.035Z,32.03
2022-09-24T05:36:13.738Z,30.50
2022-09-24T05:38:41.810Z,31.23
2022-09-24T05:41:08.883Z,29.17
2022-09-24T05:43:35.591Z,34.20
2022-09-24T05:46:02.712Z,27.43
2022-09-24T05:48:29.507Z,30.17
2022-09-24T05:50:56.478Z,27.30
2022-09-24T05:53:23.441Z,33.90
2022-09-24T05:55:50.256Z,31.30
2022-09-24T05:58:18.337Z,31.37
2022-09-24T06:00:45.761Z,26.27
2022-09-24T06:03:15.436Z,26.30
2022-09-24T06:05:52.170Z,29.10
2022-09-24T06:08:20.788Z,23.73
2022-09-24T06:10:48.609Z,22.83
2022-09-24T06:13:18.847Z,24.27
2022-09-24T06:15:46.053Z,26.40
2022-09-24T06:18:12.863Z,22.63
2022-09-24T06:20:40.250Z,22.53
2022-09-24T06:23:07.859Z,23.00
2022-09-24T06:25:34.825Z,27.23
2022-09-24T06:28:03.862Z,25.57
2022-09-24T06:30:35.120Z,24.37
2022-09-24T06:33:07.125Z,27.50
2022-09-24T06:35:35.876Z,28.10
2022-09-24T06:38:04.224Z,28.40
2022-09-24T06:40:36.215Z,26.77
2022-09-24T06:43:03.912Z,23.17
2022-09-24T06:45:30.617Z,24.20
2022-09-24T06:48:02.223Z,29.17
2022-09-24T06:50:31.605Z,28.23
2022-09-24T06:52:58.674Z,23.57
2022-09-24T06:55:25.596Z,18.20
2022-09-24T06:58:09.399Z,19.53
2022-09-24T07:00:37.604Z,17.97
2022-09-24T07:03:05.651Z,18.20
2022-09-24T07:05:33.661Z,20.87
2022-09-24T07:08:00.503Z,15.03
2022-09-24T07:10:27.997Z,18.27
2022-09-24T07:12:54.800Z,19.40
2022-09-24T07:15:21.496Z,17.97
2022-09-24T07:17:48.252Z,17.87
2022-09-24T07:20:15.045Z,16.40
2022-09-24T07:22:43.165Z,17.90
2022-09-24T07:25:13.049Z,16.27
2022-09-24T07:27:39.993Z,15.37
2022-09-24T07:30:08.161Z,16.47
2022-09-24T07:32:35.190Z,25.50
2022-09-24T07:35:02.072Z,22.93
2022-09-24T07:37:28.775Z,24.30
2022-09-24T07:39:55.455Z,18.60
2022-09-24T07:42:22.204Z,17.07
2022-09-24T07:44:48.890Z,20.50
2022-09-24T07:47:15.860Z,22.27
2022-09-24T07:49:43.134Z,17.03
2022-09-24T07:52:11.349Z,15.07
2022-09-24T07:54:38.325Z,16.87
2022-09-24T07:57:12.476Z,20.10
2022-09-24T07:59:39.480Z,22.73
2022-09-24T08:02:16.000Z,16.17
2022-09-24T08:04:43.382Z,19.17
2022-09-24T08:07:11.660Z,14.60
2022-09-24T08:09:38.842Z,15.43
2022-09-24T08:12:06.428Z,15.77
2022-09-24T08:14:33.543Z,18.80
2022-09-24T08:17:01.917Z,16.57
2022-09-24T08:19:30.929Z,16.27
2022-09-24T08:21:58.367Z,13.60
2022-09-24T08:24:25.908Z,17.53
2022-09-24T08:26:52.571Z,13.60
2022-09-24T08:29:19.300Z,18.00
2022-09-24T08:31:46.028Z,16.33
2022-09-24T08:34:12.788Z,15.33
2022-09-24T08:36:42.803Z,13.13
2022-09-24T08:39:10.504Z,16.42
2022-09-24T08:41:50.172Z,14.27
2022-09-24T08:44:50.688Z,16.27
2022-09-24T08:47:34.170Z,12.85
2022-09-24T08:50:29.242Z,20.15
2022-09-24T08:53:06.769Z,13.80
2022-09-24T08:55:36.241Z,18.38
2022-09-24T08:58:26.174Z,15.95
2022-09-24T09:01:11.996Z,13.30
2022-09-24T09:03:47.752Z,13.63
2022-09-24T09:06:33.048Z,15.75
2022-09-24T09:09:12.064Z,12.35
2022-09-24T09:11:40.743Z,14.50
2022-09-24T09:14:19.726Z,13.45
2022-09-24T09:16:46.365Z,11.85
2022-09-24T09:19:16.056Z,11.70
2022-09-24T09:21:52.418Z,12.48
2022-09-24T09:24:23.446Z,14.75
2022-09-24T09:26:54.646Z,11.68
2022-09-24T09:29:25.502Z,9.82
2022-09-24T09:32:26.969Z,8.75
2022-09-24T09:35:03.889Z,10.82
2022-09-24T09:37:49.473Z,9.75
2022-09-24T09:40:36.443Z,11.13
2022-09-24T09:43:09.099Z,13.60
2022-09-24T09:46:13.686Z,11.25
2022-09-24T09:48:54.364Z,13.95
2022-09-24T09:51:25.963Z,13.85
2022-09-24T09:53:58.376Z,10.75
2022-09-24T09:56:28.467Z,12.10
2022-09-24T09:59:07.735Z,11.60
2022-09-24T10:01:37.913Z,14.07
2022-09-24T10:04:05.171Z,15.77
2022-09-24T10:06:36.213Z,10.32
2022-09-24T10:09:22.389Z,11.30
2022-09-24T10:11:49.479Z,7.88
2022-09-24T10:14:19.269Z,9.40
2022-09-24T10:16:51.955Z,8.95
2022-09-24T10:19:27.815Z,10.07
2022-09-24T10:22:00.315Z,10.32
2022-09-24T10:24:28.927Z,10.05
2022-09-24T10:26:55.799Z,8.43
2022-09-24T10:29:52.309Z,7.72
2022-09-24T10:32:26.972Z,8.25
2022-09-24T10:35:01.077Z,5.75
2022-09-24T10:37:29.125Z,7.63
2022-09-24T10:40:00.752Z,7.95
2022-09-24T10:42:29.721Z,7.60
2022-09-24T10:45:01.237Z,9.00
2022-09-24T10:47:53.310Z,9.23
2022-09-24T10:50:32.045Z,9.95
2022-09-24T10:53:07.862Z,5.25
2022-09-24T10:56:21.755Z,3.50
2022-09-24T10:59:12.720Z,8.98
2022-09-24T11:02:05.248Z,5.38
2022-09-24T11:04:53.745Z,5.72
2022-09-24T11:07:38.860Z,7.13
2022-09-24T11:10:53.378Z,5.22
2022-09-24T11:13:40.444Z,5.90
2022-09-24T11:16:39.164Z,3.95
2022-09-24T11:19:36.705Z,5.70
2022-09-24T11:22:29.535Z,8.13
2022-09-24T11:25:17.962Z,12.02
2022-09-24T11:28:09.892Z,7.97
2022-09-24T11:30:51.748Z,7.15
2022-09-24T11:33:39.768Z,11.45
2022-09-24T11:36:46.975Z,7.18
2022-09-24T11:39:25.911Z,6.22
2022-09-24T11:42:16.546Z,4.55
2022-09-24T11:44:58.121Z,7.03
2022-09-24T11:47:39.734Z,6.20
2022-09-24T11:50:31.147Z,15.82
2022-09-24T11:53:13.454Z,6.63
2022-09-24T11:55:53.758Z,4.25
2022-09-24T11:58:35.823Z,6.07
2022-09-24T12:01:20.249Z,5.88
2022-09-24T12:04:05.445Z,5.57
2022-09-24T12:06:37.522Z,8.23
2022-09-24T12:09:16.552Z,5.30
2022-09-24T12:11:50.167Z,4.93
2022-09-24T12:14:25.066Z,7.82
2022-09-24T12:17:01.000Z,5.18
2022-09-24T12:19:35.424Z,7.93
2022-09-24T12:22:04.661Z,4.45
2022-09-24T12:24:39.060Z,8.73
2022-09-24T12:27:15.544Z,5.95
2022-09-24T12:30:23.889Z,6.05
2022-09-24T12:33:06.463Z,4.20
2022-09-24T12:35:49.879Z,6.90
2022-09-24T12:38:19.032Z,7.22
2022-09-24T12:41:05.517Z,7.00
2022-09-24T12:43:40.265Z,4.50
2022-09-24T12:46:13.127Z,6.35
2022-09-24T12:48:40.149Z,5.25
2022-09-24T12:51:10.258Z,5.30
2022-09-24T12:53:40.649Z,6.13
2022-09-24T12:56:09.806Z,7.75
2022-09-24T12:58:39.963Z,5.63
2022-09-24T13:01:13.362Z,5.43
2022-09-24T13:03:46.703Z,4.28
2022-09-24T13:06:36.762Z,8.07
2022-09-24T13:09:25.777Z,7.15
2022-09-24T13:12:33.147Z,6.13
2022-09-24T13:15:04.300Z,10.15
2022-09-24T13:17:33.661Z,6.25
2022-09-24T13:20:08.942Z,9.77
2022-09-24T13:22:37.317Z,4.85
2022-09-24T13:25:10.529Z,4.30
2022-09-24T13:27:42.901Z,5.07
2022-09-24T13:30:09.644Z,11.32
2022-09-24T13:32:51.050Z,6.78
2022-09-24T13:35:24.918Z,8.23
2022-09-24T13:38:01.260Z,6.30
2022-09-24T13:40:34.851Z,5.13
2022-09-24T13:43:20.200Z,4.85
2022-09-24T13:45:47.777Z,8.02
2022-09-24T13:48:39.152Z,4.03
2022-09-24T13:51:11.063Z,6.53
2022-09-24T13:54:03.016Z,6.40
2022-09-24T13:56:30.296Z,8.25
2022-09-24T13:59:07.849Z,8.20
2022-09-24T14:01:42.269Z,8.63
2022-09-24T14:04:20.916Z,9.52
2022-09-24T14:06:56.827Z,5.50
2022-09-24T14:09:23.552Z,7.90
2022-09-24T14:11:52.480Z,7.78
2022-09-24T14:14:21.343Z,7.30
2022-09-24T14:16:48.345Z,7.53
2022-09-24T14:19:16.337Z,7.68
2022-09-24T14:21:58.443Z,8.23
2022-09-24T14:24:35.775Z,7.38
2022-09-24T14:27:07.584Z,9.05
2022-09-24T14:29:53.143Z,7.82
2022-09-24T14:32:28.434Z,5.82
2022-09-24T14:35:00.734Z,7.15
2022-09-24T14:37:32.380Z,5.35
2022-09-24T14:40:16.433Z,8.75
2022-09-24T14:42:47.528Z,11.13
2022-09-24T14:45:30.450Z,19.23
2022-09-24T14:48:05.354Z,9.23
2022-09-24T14:50:40.526Z,13.55
2022-09-24T14:53:34.248Z,12.18
2022-09-24T14:56:22.079Z,16.27
2022-09-24T14:58:49.183Z,15.48
2022-09-24T15:01:20.013Z,12.43
2022-09-24T15:04:07.248Z,10.15
2022-09-24T15:06:37.377Z,20.58
2022-09-24T15:09:05.228Z,8.38
2022-09-24T15:11:36.985Z,7.78
2022-09-24T15:14:13.615Z,12.60
2022-09-24T15:16:40.743Z,12.07
2022-09-24T15:19:07.424Z,21.20
2022-09-24T15:21:34.748Z,15.25
2022-09-24T15:24:02.222Z,11.75
2022-09-24T15:26:31.664Z,23.90
2022-09-24T15:28:59.637Z,21.58
2022-09-24T15:31:26.616Z,11.80
2022-09-24T15:33:54.104Z,14.90
2022-09-24T15:36:21.421Z,25.67
2022-09-24T15:38:49.676Z,20.75
2022-09-24T15:41:16.487Z,25.40
2022-09-24T15:43:43.184Z,31.92
2022-09-24T15:46:10.011Z,31.45
2022-09-24T15:48:38.070Z,24.15
2022-09-24T15:51:10.920Z,25.13
2022-09-24T15:53:41.357Z,26.33
2022-09-24T15:56:08.283Z,29.98
2022-09-24T15:58:35.115Z,44.35
2022-09-24T16:01:02.597Z,71.95
2022-09-24T16:03:31.798Z,87.32
2022-09-24T16:05:59.859Z,100.65
2022-09-24T16:08:27.162Z,91.97
2022-09-24T16:10:54.487Z,95.85
2022-09-24T16:13:24.200Z,92.95
2022-09-24T16:15:50.984Z,86.28
2022-09-24T16:18:18.177Z,63.78
2022-09-24T16:20:46.220Z,51.60
2022-09-24T16:23:14.961Z,45.60
2022-09-24T16:25:53.153Z,51.15
2022-09-24T16:28:19.979Z,47.75
2022-09-24T16:30:46.967Z,39.08
2022-09-24T16:33:13.701Z,43.45
2022-09-24T16:35:40.505Z,34.95
2022-09-24T16:38:07.224Z,53.28
2022-09-24T16:40:34.279Z,69.53
2022-09-24T16:43:01.388Z,172.77
2022-09-24T16:45:28.173Z,196.00
2022-09-24T16:47:54.866Z,171.38
2022-09-24T16:50:23.684Z,155.27
2022-09-24T16:52:52.369Z,167.25
2022-09-24T16:55:19.078Z,130.18
2022-09-24T16:57:45.963Z,123.57
2022-09-24T17:00:13.227Z,121.65
2022-09-24T17:02:40.039Z,119.22
2022-09-24T17:05:07.679Z,109.22
2022-09-24T17:07:34.811Z,137.52
2022-09-24T17:10:13.401Z,153.80
2022-09-24T17:12:45.397Z,113.68
2022-09-24T17:15:14.759Z,119.93
2022-09-24T17:17:49.945Z,127.00
2022-09-24T17:20:19.021Z,135.13
2022-09-24T17:22:48.143Z,144.95
2022-09-24T17:25:15.277Z,141.85
2022-09-24T17:27:42.049Z,127.60
2022-09-24T17:30:10.913Z,124.53
2022-09-24T17:32:37.699Z,128.90
2022-09-24T17:35:05.144Z,111.22
2022-09-24T17:37:32.581Z,93.43
2022-09-24T17:39:59.708Z,103.90
2022-09-24T17:42:26.486Z,112.07
2022-09-24T17:44:53.206Z,116.80
2022-09-24T17:47:19.897Z,129.43
2022-09-24T17:49:46.593Z,154.93
2022-09-24T17:52:13.533Z,195.13
2022-09-24T17:54:40.296Z,194.20
2022-09-24T17:57:07.057Z,219.43
2022-09-24T17:59:33.760Z,222.93
2022-09-24T18:02:00.606Z,208.17
2022-09-24T18:04:31.215Z,186.93
2022-09-24T18:06:58.015Z,206.77
2022-09-24T18:09:24.723Z,187.50
2022-09-24T18:11:52.468Z,188.40
2022-09-24T18:14:21.956Z,189.40
2022-09-24T18:16:51.743Z,189.07
2022-09-24T18:19:18.773Z,183.93
2022-09-24T18:21:46.694Z,174.60
2022-09-24T18:24:14.637Z,166.30
2022-09-24T18:26:41.473Z,152.07
2022-09-24T18:29:13.109Z,136.23
2022-09-24T18:31:41.593Z,130.07
2022-09-24T18:34:11.105Z,135.50
2022-09-24T18:36:39.944Z,144.77
2022-09-24T18:39:13.700Z,149.07
2022-09-24T18:41:41.880Z,163.50
2022-09-24T18:44:10.448Z,172.57
2022-09-24T18:46:37.633Z,191.23
2022-09-24T18:49:06.539Z,194.00
2022-09-24T18:51:35.460Z,220.50
2022-09-24T18:54:05.958Z,276.03
2022-09-24T18:56:33.227Z,276.53
2022-09-24T18:59:10.337Z,273.10
2022-09-24T19:01:38.593Z,257.03
2022-09-24T19:04:09.040Z,234.27
2022-09-24T19:06:37.358Z,229.17
2022-09-24T19:09:05.613Z,265.60
2022-09-24T19:11:32.624Z,380.03
2022-09-24T19:13:59.704Z,422.77
2022-09-24T19:16:26.788Z,431.60
2022-09-24T19:18:54.483Z,437.43
2022-09-24T19:21:25.417Z,420.60
2022-09-24T19:23:54.862Z,390.07
2022-09-24T19:26:24.505Z,370.63
2022-09-24T19:28:52.058Z,358.47
2022-09-24T19:31:25.270Z,304.80
2022-09-24T19:33:53.594Z,279.30
2022-09-24T19:36:21.500Z,271.23
2022-09-24T19:38:49.082Z,257.33
2022-09-24T19:41:27.106Z,249.27
2022-09-24T19:43:56.866Z,255.67
2022-09-24T19:46:25.832Z,243.40
2022-09-24T19:48:54.204Z,222.00
2022-09-24T19:51:22.400Z,217.40
2022-09-24T19:53:57.885Z,228.10
2022-09-24T19:56:25.558Z,228.23
2022-09-24T19:58:54.771Z,219.30
2022-09-24T20:01:30.452Z,219.23
2022-09-24T20:03:59.001Z,204.63
2022-09-24T20:06:29.030Z,192.00
2022-09-24T20:08:57.279Z,177.17
2022-09-24T20:11:25.750Z,173.87
2022-09-24T20:13:55.333Z,156.27
2022-09-24T20:16:26.249Z,142.97
2022-09-24T20:18:57.725Z,125.37
2022-09-24T20:21:32.290Z,109.70
2022-09-24T20:23:59.445Z,99.23
2022-09-24T20:26:45.342Z,91.23
2022-09-24T20:29:13.903Z,82.73
2022-09-24T20:31:42.529Z,81.70
2022-09-24T20:34:09.334Z,77.90
2022-09-24T20:36:36.458Z,72.13
2022-09-24T20:39:03.995Z,64.63
2022-09-24T20:41:30.693Z,53.00
2022-09-24T20:43:57.393Z,39.87
2022-09-24T20:46:27.761Z,35.60
2022-09-24T20:48:59.931Z,27.30
2022-09-24T20:51:31.760Z,23.93
2022-09-24T20:53:59.406Z,21.83
2022-09-24T20:56:26.921Z,26.67
2022-09-24T20:58:54.123Z,21.27
2022-09-24T21:01:21.929Z,20.07
2022-09-24T21:03:50.173Z,20.87
2022-09-24T21:06:20.715Z,23.07
2022-09-24T21:08:47.586Z,26.37
2022-09-24T21:11:22.880Z,25.13
2022-09-24T21:13:56.083Z,24.37
2022-09-24T21:16:25.484Z,26.87
2022-09-24T21:18:56.151Z,25.30
2022-09-24T21:21:31.497Z,35.77
2022-09-24T21:24:00.220Z,24.67
2022-09-24T21:26:32.810Z,25.07
2022-09-24T21:29:08.185Z,26.27
2022-09-24T21:31:36.820Z,22.70
2022-09-24T21:34:05.685Z,23.20
2022-09-24T21:36:39.831Z,24.73
2022-09-24T21:39:14.952Z,21.47
2022-09-24T21:41:42.312Z,19.47
2022-09-24T21:44:12.330Z,23.10
2022-09-24T21:46:40.544Z,23.63
2022-09-24T21:49:07.426Z,20.20
2022-09-24T21:51:34.220Z,26.00
2022-09-24T21:54:03.226Z,19.07
2022-09-24T21:56:31.484Z,19.93
2022-09-24T21:58:58.980Z,17.57
2022-09-24T22:01:28.748Z,19.23
2022-09-24T22:03:58.274Z,19.37
2022-09-24T22:06:29.951Z,19.93
2022-09-24T22:08:58.815Z,18.33
2022-09-24T22:11:28.600Z,18.33
2022-09-24T22:14:01.261Z,19.00
2022-09-24T22:16:29.882Z,18.73
2022-09-24T22:18:56.775Z,17.30
2022-09-24T22:21:23.993Z,20.67
2022-09-24T22:23:51.097Z,18.83
2022-09-24T22:26:18.602Z,21.97
2022-09-24T22:28:45.860Z,26.53
2022-09-24T22:31:16.340Z,18.23
2022-09-24T22:34:02.401Z,23.30
2022-09-24T22:36:31.224Z,53.53
2022-09-24T22:38:59.528Z,68.50
2022-09-24T22:41:29.015Z,71.10
2022-09-24T22:43:57.135Z,60.97
2022-09-24T22:46:27.115Z,74.90
2022-09-24T22:48:55.529Z,68.53
2022-09-24T22:51:23.774Z,73.87
2022-09-24T22:53:50.496Z,71.53
2022-09-24T22:56:19.428Z,75.00
2022-09-24T22:58:54.886Z,80.03
2022-09-24T23:01:31.448Z,81.77
2022-09-24T23:03:59.496Z,77.27
2022-09-24T23:06:26.829Z,77.80
2022-09-24T23:08:54.934Z,71.10
2022-09-24T23:11:28.473Z,77.40
2022-09-24T23:14:00.538Z,71.83
2022-09-24T23:16:32.720Z,73.00
2022-09-24T23:19:01.129Z,76.50
2022-09-24T23:21:30.495Z,77.53
2022-09-24T23:24:00.190Z,86.50
2022-09-24T23:26:27.300Z,91.53
2022-09-24T23:28:55.960Z,91.07
2022-09-24T23:31:27.598Z,87.67
2022-09-24T23:33:56.181Z,85.60
2022-09-24T23:36:23.975Z,90.40
2022-09-24T23:38:50.924Z,83.13
2022-09-24T23:41:18.249Z,97.13
2022-09-24T23:43:45.687Z,94.17
2022-09-24T23:46:13.698Z,112.03
2022-09-24T23:48:40.579Z,116.87
2022-09-24T23:51:08.552Z,111.60
2022-09-24T23:53:36.211Z,110.47
2022-09-24T23:56:04.977Z,107.00
2022-09-24T23:58:31.898Z,103.20
